Sedavi, Spain
Current Conditions -  °F | °C
As of 4:00 PM on Wednesday 26 Nov 2014 (Local Time) from LEVC Reporting Station
Few Clouds Few Clouds  
Wind Chill: 68°   Ceiling: Unl
Heat Index: 68°   Visibility: 6mi
Dew Point: 48°   Wind: 9mph
Humidity: 49%   Direction: 230°SW
Pressure: 29.8"   Gusts: NA
Location:  39.43°N, 0.38°W
Report Text: LEVC 261500Z 23008KT 9999 FEW020 20/09 Q1009 NOSIG
Loading
Personal Weather Stations






























Interactive Weather Map New forecast layout! Learn more

10-Day Weather Forecast

Advertisements
Track Severe Weather on mobile